createdAt,value
2023-09-13T00:02:25.261Z,83.52
2023-09-13T00:04:51.992Z,83.53
2023-09-13T00:07:19.558Z,83.66
2023-09-13T00:09:46.272Z,83.59
2023-09-13T00:12:13.358Z,83.69
2023-09-13T00:14:39.933Z,83.98
2023-09-13T00:17:06.534Z,83.51
2023-09-13T00:19:33.147Z,83.14
2023-09-13T00:21:59.803Z,83.23
2023-09-13T00:24:26.489Z,83.67
2023-09-13T00:26:53.135Z,83.53
2023-09-13T00:29:19.763Z,83.85
2023-09-13T00:31:46.885Z,83.93
2023-09-13T00:34:14.042Z,83.94
2023-09-13T00:36:41.468Z,84.03
2023-09-13T00:39:08.271Z,84.05
2023-09-13T00:41:34.923Z,84.18
2023-09-13T00:44:01.659Z,84.19
2023-09-13T00:46:29.280Z,84.29
2023-09-13T00:48:57.073Z,84.36
2023-09-13T00:51:23.919Z,83.97
2023-09-13T00:53:50.656Z,84.05
2023-09-13T00:56:18.275Z,83.77
2023-09-13T00:58:45.785Z,83.50
2023-09-13T01:01:14.380Z,83.63
2023-09-13T01:03:43.926Z,83.87
2023-09-13T01:06:12.437Z,83.67
2023-09-13T01:08:43.887Z,83.36
2023-09-13T01:11:10.511Z,83.51
2023-09-13T01:13:37.163Z,82.98
2023-09-13T01:16:15.729Z,82.87
2023-09-13T01:19:00.550Z,82.88
2023-09-13T01:21:41.376Z,82.86
2023-09-13T01:24:21.276Z,82.55
2023-09-13T01:27:08.116Z,82.79
2023-09-13T01:29:36.003Z,82.72
2023-09-13T01:32:03.519Z,82.30
2023-09-13T01:34:30.314Z,82.43
2023-09-13T01:36:57.746Z,82.28
2023-09-13T01:39:24.609Z,82.23
2023-09-13T01:41:57.713Z,81.96
2023-09-13T01:44:25.194Z,81.71
2023-09-13T01:46:53.528Z,81.30
2023-09-13T01:49:21.960Z,80.83
2023-09-13T01:51:50.114Z,80.44
2023-09-13T01:54:20.189Z,80.08
2023-09-13T01:56:46.742Z,80.09
2023-09-13T01:59:13.359Z,79.92
2023-09-13T02:01:40.058Z,79.61
2023-09-13T02:04:07.219Z,79.53
2023-09-13T02:06:33.798Z,79.42
2023-09-13T02:09:00.565Z,79.42
2023-09-13T02:11:27.114Z,79.73
2023-09-13T02:13:53.710Z,79.12
2023-09-13T02:16:23.673Z,79.35
2023-09-13T02:18:50.389Z,79.44
2023-09-13T02:21:17.712Z,79.57
2023-09-13T02:23:44.716Z,79.34
2023-09-13T02:26:21.347Z,79.29
2023-09-13T02:28:48.252Z,79.51
2023-09-13T02:31:22.089Z,79.47
2023-09-13T02:33:48.714Z,79.43
2023-09-13T02:36:15.308Z,79.32
2023-09-13T02:38:42.001Z,79.21
2023-09-13T02:41:08.657Z,79.04
2023-09-13T02:43:35.198Z,79.17
2023-09-13T02:46:01.819Z,79.06
2023-09-13T02:48:28.428Z,78.87
2023-09-13T02:50:54.993Z,78.70
2023-09-13T02:53:21.641Z,78.93
2023-09-13T02:55:48.239Z,79.20
2023-09-13T02:58:15.148Z,79.23
2023-09-13T03:00:45.087Z,79.23
2023-09-13T03:03:11.813Z,79.35
2023-09-13T03:05:38.419Z,79.61
2023-09-13T03:08:05.650Z,79.63
2023-09-13T03:10:34.310Z,79.54
2023-09-13T03:13:00.995Z,79.81
2023-09-13T03:15:27.601Z,79.84
2023-09-13T03:17:54.300Z,80.04
2023-09-13T03:20:20.889Z,80.03
2023-09-13T03:22:47.473Z,80.65
2023-09-13T03:25:14.114Z,80.89
2023-09-13T03:27:40.746Z,81.07
2023-09-13T03:30:07.750Z,81.00
2023-09-13T03:32:34.405Z,81.59
2023-09-13T03:35:01.072Z,81.77
2023-09-13T03:37:27.746Z,81.72
2023-09-13T03:39:54.327Z,81.91
2023-09-13T03:42:21.195Z,81.89
2023-09-13T03:44:48.125Z,82.15
2023-09-13T03:47:15.273Z,82.24
2023-09-13T03:49:41.911Z,82.51
2023-09-13T03:52:08.513Z,82.80
2023-09-13T03:54:35.167Z,83.10
2023-09-13T03:57:01.761Z,83.00
2023-09-13T03:59:28.362Z,82.67
2023-09-13T04:01:56.385Z,82.67
2023-09-13T04:04:25.284Z,82.62
2023-09-13T04:06:52.083Z,82.30
2023-09-13T04:09:19.255Z,82.35
2023-09-13T04:11:45.852Z,82.00
2023-09-13T04:14:12.619Z,81.59
2023-09-13T04:16:39.341Z,82.01
2023-09-13T04:19:06.064Z,81.31
2023-09-13T04:21:32.624Z,81.19
2023-09-13T04:23:59.906Z,81.34
2023-09-13T04:26:26.540Z,81.28
2023-09-13T04:28:54.667Z,80.63
2023-09-13T04:31:21.481Z,80.66
2023-09-13T04:33:55.728Z,80.56
2023-09-13T04:36:22.430Z,80.44
2023-09-13T04:38:49.357Z,80.67
2023-09-13T04:41:17.401Z,80.65
2023-09-13T04:43:44.561Z,80.77
2023-09-13T04:46:12.037Z,80.74
2023-09-13T04:48:38.818Z,82.05
2023-09-13T04:51:06.004Z,82.45
2023-09-13T04:53:34.316Z,80.34
2023-09-13T04:56:02.019Z,77.95
2023-09-13T04:58:32.087Z,75.06
2023-09-13T05:01:00.132Z,74.42
2023-09-13T05:03:27.109Z,72.69
2023-09-13T05:05:55.704Z,70.97
2023-09-13T05:08:22.249Z,70.61
2023-09-13T05:10:48.988Z,69.71
2023-09-13T05:13:15.633Z,69.02
2023-09-13T05:15:43.694Z,68.92
2023-09-13T05:18:10.428Z,67.96
2023-09-13T05:20:37.548Z,67.94
2023-09-13T05:23:05.700Z,67.59
2023-09-13T05:25:32.378Z,69.57
2023-09-13T05:27:59.014Z,70.49
2023-09-13T05:30:26.384Z,71.83
2023-09-13T05:32:53.129Z,73.17
2023-09-13T05:35:19.830Z,74.06
2023-09-13T05:37:46.403Z,74.76
2023-09-13T05:40:13.133Z,74.89
2023-09-13T05:42:39.716Z,76.03
2023-09-13T05:45:06.795Z,76.28
2023-09-13T05:47:33.392Z,76.89
2023-09-13T05:49:59.949Z,76.99
2023-09-13T05:52:26.579Z,77.30
2023-09-13T05:54:53.225Z,76.98
2023-09-13T05:57:19.836Z,77.73
2023-09-13T05:59:46.463Z,78.70
2023-09-13T06:02:13.123Z,78.87
2023-09-13T06:04:39.762Z,79.29
2023-09-13T06:07:06.496Z,79.58
2023-09-13T06:09:33.042Z,79.35
2023-09-13T06:12:02.835Z,80.05
2023-09-13T06:14:29.654Z,78.73
2023-09-13T06:16:56.255Z,79.08
2023-09-13T06:19:23.035Z,79.71
2023-09-13T06:21:49.805Z,79.68
2023-09-13T06:24:16.462Z,79.25
2023-09-13T06:26:43.011Z,79.68
2023-09-13T06:29:11.334Z,79.84
2023-09-13T06:31:41.603Z,79.78
2023-09-13T06:34:22.938Z,80.03
2023-09-13T06:36:52.922Z,80.22
2023-09-13T06:39:20.038Z,79.59
2023-09-13T06:41:46.778Z,79.12
2023-09-13T06:44:13.694Z,78.42
2023-09-13T06:46:47.602Z,78.54
2023-09-13T06:49:18.021Z,77.77
2023-09-13T06:51:51.525Z,77.60
2023-09-13T06:54:21.609Z,75.83
2023-09-13T06:56:51.792Z,75.16
2023-09-13T06:59:21.839Z,75.33
2023-09-13T07:04:26.568Z,74.12
2023-09-13T07:06:58.562Z,74.01
2023-09-13T07:09:25.421Z,74.32
2023-09-13T07:11:52.156Z,73.87
2023-09-13T07:14:19.312Z,73.34
2023-09-13T07:16:46.047Z,73.30
2023-09-13T07:19:12.739Z,71.18
2023-09-13T07:21:39.338Z,71.47
2023-09-13T07:24:06.190Z,71.22
2023-09-13T07:26:32.796Z,71.22
2023-09-13T07:28:59.490Z,70.28
2023-09-13T07:31:26.196Z,68.81
2023-09-13T07:33:52.884Z,68.87
2023-09-13T07:36:19.508Z,67.38
2023-09-13T07:38:46.531Z,67.32
2023-09-13T07:41:14.247Z,66.58
2023-09-13T07:43:40.962Z,65.55
2023-09-13T07:46:07.615Z,64.67
2023-09-13T07:48:34.430Z,63.84
2023-09-13T07:51:01.108Z,63.65
2023-09-13T07:53:27.800Z,64.06
2023-09-13T07:55:54.467Z,63.51
2023-09-13T07:58:21.219Z,62.22
2023-09-13T08:00:48.264Z,62.17
2023-09-13T08:03:15.349Z,63.13
2023-09-13T08:05:43.679Z,63.29
2023-09-13T08:08:10.816Z,61.00
2023-09-13T08:10:37.820Z,62.00
2023-09-13T08:13:04.636Z,60.32
2023-09-13T08:15:43.476Z,60.37
2023-09-13T08:18:15.878Z,60.21
2023-09-13T08:20:42.933Z,60.68
2023-09-13T08:23:09.700Z,60.64
2023-09-13T08:25:36.605Z,61.03
2023-09-13T08:28:05.281Z,60.91
2023-09-13T08:30:32.071Z,61.31
2023-09-13T08:32:58.763Z,61.83
2023-09-13T08:35:25.404Z,60.03
2023-09-13T08:37:52.147Z,60.58
2023-09-13T08:40:18.877Z,61.27
2023-09-13T08:42:47.422Z,61.07
2023-09-13T08:45:14.357Z,59.90
2023-09-13T08:50:20.972Z,59.06
2023-09-13T08:52:48.780Z,59.82
2023-09-13T08:55:16.468Z,59.23
2023-09-13T08:57:43.557Z,58.94
2023-09-13T09:00:10.740Z,57.77
2023-09-13T09:02:38.875Z,57.92
2023-09-13T09:05:11.778Z,58.69
2023-09-13T09:07:40.842Z,56.90
2023-09-13T09:10:12.600Z,54.70
2023-09-13T09:12:49.938Z,54.29
2023-09-13T09:15:19.385Z,53.91
2023-09-13T09:17:50.700Z,54.66
2023-09-13T09:20:19.487Z,53.98
2023-09-13T09:22:46.154Z,54.00
2023-09-13T09:25:14.786Z,53.81
2023-09-13T09:27:42.357Z,55.09
2023-09-13T09:30:15.828Z,54.84
2023-09-13T09:32:45.190Z,54.97
2023-09-13T09:35:13.025Z,54.04
2023-09-13T09:37:39.696Z,53.35
2023-09-13T09:40:16.130Z,52.24
2023-09-13T09:42:42.902Z,51.37
2023-09-13T09:45:09.964Z,51.09
2023-09-13T09:47:42.389Z,52.04
2023-09-13T09:50:12.737Z,50.94
2023-09-13T09:52:39.609Z,50.74
2023-09-13T09:55:06.608Z,50.73
2023-09-13T09:57:34.179Z,50.25
2023-09-13T10:00:01.363Z,50.92
2023-09-13T10:02:29.194Z,50.68
2023-09-13T10:04:56.050Z,50.89
2023-09-13T10:07:22.693Z,50.67
2023-09-13T10:09:49.413Z,49.65
2023-09-13T10:12:16.547Z,47.67
2023-09-13T10:14:45.403Z,48.17
2023-09-13T10:17:13.099Z,46.89
2023-09-13T10:19:42.467Z,46.02
2023-09-13T10:22:09.883Z,46.67
2023-09-13T10:24:41.074Z,46.92
2023-09-13T10:27:08.964Z,46.55
2023-09-13T10:29:46.339Z,45.82
2023-09-13T10:32:16.362Z,44.53
2023-09-13T10:34:50.384Z,43.79
2023-09-13T10:37:35.563Z,43.64
2023-09-13T10:40:15.889Z,43.66
2023-09-13T10:42:43.781Z,44.62
2023-09-13T10:45:15.510Z,44.45
2023-09-13T10:47:42.401Z,45.10
2023-09-13T10:50:10.039Z,45.57
2023-09-13T10:52:37.681Z,46.29
2023-09-13T10:55:08.216Z,46.79
2023-09-13T10:57:35.891Z,47.47
2023-09-13T11:00:10.089Z,47.14
2023-09-13T11:02:48.439Z,48.25
2023-09-13T11:05:17.297Z,49.52
2023-09-13T11:07:49.535Z,49.44
2023-09-13T11:10:20.687Z,49.38
2023-09-13T11:12:51.467Z,49.13
2023-09-13T11:15:26.353Z,48.38
2023-09-13T11:18:13.628Z,47.86
2023-09-13T11:20:41.516Z,48.56
2023-09-13T11:23:26.555Z,47.22
2023-09-13T11:26:10.811Z,46.74
2023-09-13T11:28:40.692Z,47.08
2023-09-13T11:31:12.270Z,47.15
2023-09-13T11:33:41.138Z,47.58
2023-09-13T11:36:09.352Z,48.01
2023-09-13T11:38:36.395Z,48.85
2023-09-13T11:41:03.001Z,49.15
2023-09-13T11:43:34.314Z,49.70
2023-09-13T11:46:01.895Z,49.60
2023-09-13T11:48:30.462Z,50.31
2023-09-13T11:51:15.905Z,49.72
2023-09-13T11:53:44.914Z,49.71
2023-09-13T11:56:50.136Z,49.93
2023-09-13T11:59:20.164Z,50.50
2023-09-13T12:01:53.043Z,50.37
2023-09-13T12:07:02.778Z,49.03
2023-09-13T12:09:31.990Z,48.52
2023-09-13T12:12:06.153Z,48.23
2023-09-13T12:14:56.722Z,47.82
2023-09-13T12:17:20.937Z,46.57
2023-09-13T12:19:48.773Z,44.31
2023-09-13T12:22:17.201Z,45.35
2023-09-13T12:24:52.705Z,44.23
2023-09-13T12:27:19.351Z,43.25
2023-09-13T12:29:48.023Z,43.59
2023-09-13T12:32:16.189Z,43.22
2023-09-13T12:34:43.392Z,42.84
2023-09-13T12:37:10.120Z,43.04
2023-09-13T12:39:36.750Z,43.04
2023-09-13T12:42:09.193Z,43.37
2023-09-13T12:44:38.513Z,41.71
2023-09-13T12:47:06.385Z,42.02
2023-09-13T12:49:38.235Z,42.14
2023-09-13T12:52:06.277Z,42.13
2023-09-13T12:54:36.566Z,43.05
2023-09-13T12:57:06.427Z,43.33
2023-09-13T12:59:46.771Z,43.58
2023-09-13T13:02:19.381Z,44.06
2023-09-13T13:04:47.299Z,45.08
2023-09-13T13:07:23.237Z,46.21
2023-09-13T13:09:54.348Z,45.96
2023-09-13T13:12:21.069Z,46.36
2023-09-13T13:14:52.139Z,46.15
2023-09-13T13:17:19.204Z,46.59
2023-09-13T13:19:55.979Z,47.20
2023-09-13T13:22:25.302Z,47.58
2023-09-13T13:24:53.590Z,47.74
2023-09-13T13:27:20.580Z,47.90
2023-09-13T13:29:47.430Z,48.65
2023-09-13T13:32:14.086Z,47.86
2023-09-13T13:34:40.822Z,47.42
2023-09-13T13:37:07.576Z,47.70
2023-09-13T13:39:34.315Z,47.81
2023-09-13T13:42:01.075Z,48.12
2023-09-13T13:44:28.735Z,48.63
2023-09-13T13:46:55.272Z,48.16
2023-09-13T13:49:21.887Z,47.53
2023-09-13T13:51:51.881Z,47.72
2023-09-13T13:54:19.662Z,47.18
2023-09-13T13:56:47.560Z,48.11
2023-09-13T13:59:15.433Z,48.14
2023-09-13T14:01:42.557Z,47.82
2023-09-13T14:04:09.632Z,47.67
2023-09-13T14:06:36.735Z,46.43
2023-09-13T14:09:06.267Z,45.56
2023-09-13T14:11:34.440Z,45.24
2023-09-13T14:14:01.172Z,45.66
2023-09-13T14:16:27.816Z,44.01
2023-09-13T14:18:54.551Z,41.68
2023-09-13T14:21:21.262Z,40.84
2023-09-13T14:23:48.181Z,40.66
2023-09-13T14:26:14.905Z,41.28
2023-09-13T14:28:41.464Z,41.82
2023-09-13T14:31:13.635Z,43.17
2023-09-13T14:33:43.648Z,43.22
2023-09-13T14:36:11.157Z,43.68
2023-09-13T14:38:38.019Z,42.84
2023-09-13T14:41:04.629Z,42.47
2023-09-13T14:43:31.239Z,42.31
2023-09-13T14:45:57.952Z,43.09
2023-09-13T14:48:24.850Z,43.09
2023-09-13T14:50:51.577Z,42.22
2023-09-13T14:53:18.193Z,41.69
2023-09-13T14:55:46.428Z,41.55
2023-09-13T14:58:13.049Z,40.53
2023-09-13T15:00:39.626Z,40.94
2023-09-13T15:03:06.319Z,41.68
2023-09-13T15:05:32.963Z,42.83
2023-09-13T15:07:59.506Z,43.93
2023-09-13T15:10:30.307Z,44.95
2023-09-13T15:12:58.521Z,45.97
2023-09-13T15:15:25.352Z,45.83
2023-09-13T15:17:53.768Z,46.74
2023-09-13T15:20:20.608Z,47.23
2023-09-13T15:22:47.349Z,47.75
2023-09-13T15:25:13.998Z,47.92
2023-09-13T15:27:41.788Z,48.00
2023-09-13T15:30:09.688Z,48.04
2023-09-13T15:32:36.359Z,47.93
2023-09-13T15:35:04.386Z,48.76
2023-09-13T15:37:30.996Z,48.76
2023-09-13T15:40:08.881Z,49.42
2023-09-13T15:42:35.816Z,49.31
2023-09-13T15:45:03.415Z,49.53
2023-09-13T15:47:30.066Z,49.31
2023-09-13T15:49:56.691Z,49.29
2023-09-13T15:52:23.246Z,49.15
2023-09-13T15:54:49.917Z,49.19
2023-09-13T15:57:18.007Z,49.34
2023-09-13T15:59:44.604Z,50.17
2023-09-13T16:02:12.230Z,49.98
2023-09-13T16:04:40.497Z,49.73
2023-09-13T16:07:07.205Z,50.30
2023-09-13T16:09:33.799Z,50.29
2023-09-13T16:12:00.421Z,50.66
2023-09-13T16:14:33.139Z,51.25
2023-09-13T16:17:01.608Z,51.36
2023-09-13T16:19:29.187Z,50.74
2023-09-13T16:21:56.231Z,51.52
2023-09-13T16:24:22.941Z,51.22
2023-09-13T16:26:49.531Z,51.36
2023-09-13T16:29:16.176Z,51.18
2023-09-13T16:31:42.812Z,51.56
2023-09-13T16:34:09.572Z,52.17
2023-09-13T16:36:36.299Z,52.00
2023-09-13T16:39:03.706Z,52.04
2023-09-13T16:41:30.368Z,52.05
2023-09-13T16:43:57.223Z,52.36
2023-09-13T16:46:23.937Z,51.75
2023-09-13T16:48:51.236Z,51.26
2023-09-13T16:51:18.081Z,52.19
2023-09-13T16:53:44.611Z,52.22
2023-09-13T16:56:11.404Z,52.03
2023-09-13T16:58:37.996Z,51.78
2023-09-13T17:01:05.165Z,51.71
2023-09-13T17:03:31.957Z,51.75
2023-09-13T17:05:59.908Z,51.64
2023-09-13T17:08:26.493Z,51.87
2023-09-13T17:10:53.146Z,52.20
2023-09-13T17:13:24.260Z,52.59
2023-09-13T17:15:51.293Z,52.52
2023-09-13T17:18:18.261Z,52.39
2023-09-13T17:20:45.132Z,52.30
2023-09-13T17:23:11.942Z,52.71
2023-09-13T17:25:39.365Z,52.69
2023-09-13T17:28:06.295Z,53.00
2023-09-13T17:30:36.833Z,52.86
2023-09-13T17:33:03.936Z,52.83
2023-09-13T17:35:30.646Z,53.50
2023-09-13T17:37:57.830Z,53.32
2023-09-13T17:40:24.551Z,53.54
2023-09-13T17:42:51.229Z,53.84
2023-09-13T17:45:18.040Z,54.02
2023-09-13T17:47:46.465Z,54.22
2023-09-13T17:50:13.551Z,54.87
2023-09-13T17:52:40.792Z,55.00
2023-09-13T17:55:09.258Z,55.35
2023-09-13T17:57:40.164Z,55.23
2023-09-13T18:00:07.591Z,55.75
2023-09-13T18:02:34.370Z,56.28
2023-09-13T18:05:02.172Z,56.10
2023-09-13T18:07:31.850Z,56.65
2023-09-13T18:09:59.629Z,56.55
2023-09-13T18:12:26.935Z,56.96
2023-09-13T18:14:55.960Z,57.02
2023-09-13T18:17:22.519Z,57.32
2023-09-13T18:19:49.220Z,57.24
2023-09-13T18:22:15.988Z,57.32
2023-09-13T18:24:42.595Z,58.04
2023-09-13T18:27:10.356Z,57.73
2023-09-13T18:29:38.169Z,58.28
2023-09-13T18:32:05.468Z,58.76
2023-09-13T18:34:32.695Z,58.50
2023-09-13T18:36:59.654Z,59.17
2023-09-13T18:39:26.590Z,59.49
2023-09-13T18:41:53.333Z,59.72
2023-09-13T18:44:21.097Z,59.74
2023-09-13T18:46:47.869Z,60.45
2023-09-13T18:49:14.518Z,60.50
2023-09-13T18:51:42.953Z,60.92
2023-09-13T18:54:11.578Z,61.09
2023-09-13T18:56:38.219Z,61.13
2023-09-13T18:59:04.818Z,61.05
2023-09-13T19:01:31.696Z,61.21
2023-09-13T19:03:58.706Z,61.51
2023-09-13T19:06:25.628Z,61.42
2023-09-13T19:08:54.817Z,61.51
2023-09-13T19:11:25.174Z,61.77
2023-09-13T19:13:52.823Z,62.05
2023-09-13T19:16:19.583Z,61.57
2023-09-13T19:18:46.378Z,61.19
2023-09-13T19:21:18.508Z,60.99
2023-09-13T19:23:48.143Z,61.23
2023-09-13T19:26:16.075Z,61.05
2023-09-13T19:28:43.711Z,61.05
2023-09-13T19:31:10.740Z,61.07
2023-09-13T19:33:39.514Z,61.05
2023-09-13T19:36:08.292Z,61.10
2023-09-13T19:38:36.870Z,61.05
2023-09-13T19:41:04.853Z,61.49
2023-09-13T19:43:33.167Z,61.22
2023-09-13T19:46:02.197Z,61.56
2023-09-13T19:48:30.056Z,61.28
2023-09-13T19:51:11.712Z,61.29
2023-09-13T19:53:39.208Z,61.31
2023-09-13T19:56:07.879Z,61.35
2023-09-13T19:58:38.684Z,61.44
2023-09-13T20:01:10.898Z,61.43
2023-09-13T20:03:38.921Z,61.86
2023-09-13T20:06:13.635Z,61.88
2023-09-13T20:08:40.774Z,61.82
2023-09-13T20:11:07.580Z,61.92
2023-09-13T20:13:34.234Z,61.44
2023-09-13T20:16:00.930Z,61.39
2023-09-13T20:18:28.004Z,61.92
2023-09-13T20:20:57.873Z,61.89
2023-09-13T20:23:25.550Z,62.02
2023-09-13T20:25:56.885Z,62.25
2023-09-13T20:28:25.560Z,62.38
2023-09-13T20:30:52.332Z,63.20
2023-09-13T20:33:19.047Z,62.61
2023-09-13T20:35:46.583Z,63.03
2023-09-13T20:38:13.628Z,63.28
2023-09-13T20:40:40.342Z,63.28
2023-09-13T20:43:07.079Z,63.30
2023-09-13T20:45:33.761Z,63.42
2023-09-13T20:48:00.763Z,63.38
2023-09-13T20:50:27.846Z,63.84
2023-09-13T20:52:55.199Z,64.08
2023-09-13T20:55:23.083Z,64.20
2023-09-13T20:57:49.886Z,64.23
2023-09-13T21:00:16.686Z,64.25
2023-09-13T21:02:43.436Z,64.71
2023-09-13T21:05:10.090Z,64.92
2023-09-13T21:07:36.723Z,64.64
2023-09-13T21:10:03.766Z,65.29
2023-09-13T21:12:30.553Z,65.10
2023-09-13T21:14:57.892Z,65.66
2023-09-13T21:17:24.710Z,65.58
2023-09-13T21:19:52.664Z,65.58
2023-09-13T21:22:19.401Z,66.29
2023-09-13T21:24:48.227Z,66.38
2023-09-13T21:27:14.931Z,66.25
2023-09-13T21:29:41.666Z,66.58
2023-09-13T21:32:08.843Z,66.75
2023-09-13T21:34:46.712Z,66.74
2023-09-13T21:37:17.577Z,66.94
2023-09-13T21:39:44.294Z,66.74
2023-09-13T21:42:12.358Z,66.82
2023-09-13T21:44:38.953Z,67.42
2023-09-13T21:47:05.637Z,67.66
2023-09-13T21:49:32.202Z,67.36
2023-09-13T21:51:58.850Z,67.60
2023-09-13T21:54:25.623Z,68.01
2023-09-13T21:56:52.295Z,68.24
2023-09-13T21:59:18.921Z,68.02
2023-09-13T22:01:45.571Z,68.33
2023-09-13T22:04:12.436Z,68.33
2023-09-13T22:06:39.223Z,68.55
2023-09-13T22:09:07.103Z,68.13
2023-09-13T22:11:33.698Z,68.41
2023-09-13T22:14:00.838Z,68.36
2023-09-13T22:16:29.097Z,69.16
2023-09-13T22:18:56.238Z,69.38
2023-09-13T22:21:23.755Z,68.91
2023-09-13T22:23:50.385Z,69.65
2023-09-13T22:26:18.353Z,69.34
2023-09-13T22:28:45.570Z,70.11
2023-09-13T22:31:17.055Z,70.01
2023-09-13T22:33:43.872Z,70.08
2023-09-13T22:36:11.644Z,70.32
2023-09-13T22:38:38.629Z,70.83
2023-09-13T22:41:07.542Z,70.21
2023-09-13T22:43:34.429Z,70.73
2023-09-13T22:46:08.778Z,70.52
2023-09-13T22:48:35.977Z,70.25
2023-09-13T22:51:02.654Z,69.86
2023-09-13T22:53:29.309Z,69.91
2023-09-13T22:55:55.994Z,70.04
2023-09-13T22:58:22.679Z,69.98
2023-09-13T23:00:49.457Z,71.05
2023-09-13T23:03:21.782Z,71.18
2023-09-13T23:06:00.434Z,71.06
2023-09-13T23:08:27.048Z,71.28
2023-09-13T23:11:00.694Z,70.97
2023-09-13T23:13:27.293Z,71.23
2023-09-13T23:16:03.901Z,71.36
2023-09-13T23:18:32.174Z,71.14
2023-09-13T23:20:59.287Z,71.54
2023-09-13T23:23:26.454Z,71.65
2023-09-13T23:26:00.225Z,71.56
2023-09-13T23:28:26.872Z,72.35
2023-09-13T23:31:04.991Z,71.85
2023-09-13T23:33:31.835Z,72.39
2023-09-13T23:35:58.414Z,72.10
2023-09-13T23:38:25.505Z,72.42
2023-09-13T23:40:52.212Z,72.42
2023-09-13T23:43:18.935Z,72.79
2023-09-13T23:45:46.950Z,72.78
2023-09-13T23:48:14.276Z,72.91
2023-09-13T23:50:41.072Z,73.19
2023-09-13T23:53:07.634Z,72.95
2023-09-13T23:55:34.228Z,73.22
2023-09-13T23:58:00.837Z,72.85
